sensor_id;sensor_type;location;lat;lon;timestamp;pressure;altitude;pressure_sealevel;temperature;humidity
59106;BME280;44891;50.204;8.132;2022-12-05T00:01:46;98023.91;;;1.62;100.00
59106;BME280;44891;50.204;8.132;2022-12-05T00:05:48;98011.78;;;1.63;100.00
59106;BME280;44891;50.204;8.132;2022-12-05T00:09:50;97976.28;;;1.35;100.00
59106;BME280;44891;50.204;8.132;2022-12-05T00:13:54;98024.91;;;1.61;100.00
59106;BME280;44891;50.204;8.132;2022-12-05T00:17:56;98021.88;;;1.58;100.00
59106;BME280;44891;50.204;8.132;2022-12-05T00:21:58;98022.13;;;1.63;100.00
59106;BME280;44891;50.204;8.132;2022-12-05T00:26:00;98016.75;;;1.64;100.00
59106;BME280;44891;50.204;8.132;2022-12-05T00:30:04;98026.44;;;1.56;100.00
59106;BME280;44891;50.204;8.132;2022-12-05T00:34:07;98030.09;;;1.61;100.00
59106;BME280;44891;50.204;8.132;2022-12-05T00:38:10;98027.25;;;1.35;100.00
59106;BME280;44891;50.204;8.132;2022-12-05T00:42:11;98028.44;;;1.18;100.00
59106;BME280;44891;50.204;8.132;2022-12-05T00:46:15;98033.81;;;1.38;100.00
59106;BME280;44891;50.204;8.132;2022-12-05T00:50:18;98033.34;;;1.49;100.00
59106;BME280;44891;50.204;8.132;2022-12-05T00:54:20;98027.44;;;1.55;100.00
59106;BME280;44891;50.204;8.132;2022-12-05T00:58:22;98036.53;;;1.51;100.00
59106;BME280;44891;50.204;8.132;2022-12-05T01:02:25;98044.22;;;1.59;100.00
59106;BME280;44891;50.204;8.132;2022-12-05T01:06:27;98046.34;;;1.55;100.00
59106;BME280;44891;50.204;8.132;2022-12-05T01:10:29;98052.50;;;1.54;100.00
59106;BME280;44891;50.204;8.132;2022-12-05T01:14:31;98057.09;;;1.52;100.00
59106;BME280;44891;50.204;8.132;2022-12-05T01:18:35;98060.63;;;1.51;100.00
59106;BME280;44891;50.204;8.132;2022-12-05T01:22:37;98060.22;;;1.48;100.00
59106;BME280;44891;50.204;8.132;2022-12-05T01:26:39;98070.63;;;1.54;100.00
59106;BME280;44891;50.204;8.132;2022-12-05T01:30:42;98066.59;;;1.52;100.00
59106;BME280;44891;50.204;8.132;2022-12-05T01:34:46;98072.03;;;1.35;100.00
59106;BME280;44891;50.204;8.132;2022-12-05T01:38:48;98078.09;;;1.28;100.00
59106;BME280;44891;50.204;8.132;2022-12-05T01:42:50;98073.69;;;1.43;100.00
59106;BME280;44891;50.204;8.132;2022-12-05T01:46:53;98077.72;;;1.46;100.00
59106;BME280;44891;50.204;8.132;2022-12-05T01:50:56;98072.97;;;1.49;100.00
59106;BME280;44891;50.204;8.132;2022-12-05T01:55:02;98086.97;;;1.55;100.00
59106;BME280;44891;50.204;8.132;2022-12-05T01:59:05;98082.06;;;1.45;100.00
59106;BME280;44891;50.204;8.132;2022-12-05T02:03:09;98079.00;;;1.56;100.00
59106;BME280;44891;50.204;8.132;2022-12-05T02:07:14;98076.59;;;1.55;100.00
59106;BME280;44891;50.204;8.132;2022-12-05T02:11:16;98081.25;;;1.45;100.00
59106;BME280;44891;50.204;8.132;2022-12-05T02:15:32;98083.25;;;1.43;100.00
59106;BME280;44891;50.204;8.132;2022-12-05T02:19:50;98085.44;;;1.60;100.00
59106;BME280;44891;50.204;8.132;2022-12-05T02:24:01;98083.19;;;1.57;100.00
59106;BME280;44891;50.204;8.132;2022-12-05T02:28:13;98087.81;;;1.62;100.00
59106;BME280;44891;50.204;8.132;2022-12-05T02:32:27;98091.41;;;1.61;100.00
59106;BME280;44891;50.204;8.132;2022-12-05T02:36:35;98089.22;;;1.64;100.00
59106;BME280;44891;50.204;8.132;2022-12-05T02:40:41;98081.66;;;1.63;100.00
59106;BME280;44891;50.204;8.132;2022-12-05T02:44:46;98077.66;;;1.60;100.00
59106;BME280;44891;50.204;8.132;2022-12-05T02:48:55;98077.94;;;1.51;100.00
59106;BME280;44891;50.204;8.132;2022-12-05T02:52:59;98074.38;;;1.52;100.00
59106;BME280;44891;50.204;8.132;2022-12-05T02:57:03;98079.31;;;1.47;100.00
59106;BME280;44891;50.204;8.132;2022-12-05T03:01:05;98081.19;;;1.38;100.00
59106;BME280;44891;50.204;8.132;2022-12-05T03:05:11;98073.63;;;1.36;100.00
59106;BME280;44891;50.204;8.132;2022-12-05T03:09:18;98081.50;;;1.28;100.00
59106;BME280;44891;50.204;8.132;2022-12-05T03:13:23;98079.06;;;1.42;100.00
59106;BME280;44891;50.204;8.132;2022-12-05T03:17:28;98085.69;;;1.29;100.00
59106;BME280;44891;50.204;8.132;2022-12-05T03:21:34;98090.66;;;1.31;100.00
59106;BME280;44891;50.204;8.132;2022-12-05T03:25:39;98099.22;;;1.46;100.00
59106;BME280;44891;50.204;8.132;2022-12-05T03:29:49;98096.00;;;1.44;100.00
59106;BME280;44891;50.204;8.132;2022-12-05T03:33:52;98110.91;;;1.42;100.00
59106;BME280;44891;50.204;8.132;2022-12-05T03:37:59;98112.47;;;1.58;100.00
59106;BME280;44891;50.204;8.132;2022-12-05T03:42:06;98107.34;;;1.64;100.00
59106;BME280;44891;50.204;8.132;2022-12-05T03:46:10;98117.88;;;1.63;100.00
59106;BME280;44891;50.204;8.132;2022-12-05T03:50:17;98115.38;;;1.70;100.00
59106;BME280;44891;50.204;8.132;2022-12-05T03:54:22;98122.53;;;1.68;100.00
59106;BME280;44891;50.204;8.132;2022-12-05T03:58:26;98118.34;;;1.67;100.00
59106;BME280;44891;50.204;8.132;2022-12-05T04:02:30;98116.38;;;1.69;100.00
59106;BME280;44891;50.204;8.132;2022-12-05T04:06:35;98120.94;;;1.67;100.00
59106;BME280;44891;50.204;8.132;2022-12-05T04:10:39;98128.50;;;1.68;100.00
59106;BME280;44891;50.204;8.132;2022-12-05T04:14:49;98116.16;;;1.70;100.00
59106;BME280;44891;50.204;8.132;2022-12-05T04:18:54;98122.81;;;1.58;100.00
59106;BME280;44891;50.204;8.132;2022-12-05T04:22:58;98118.44;;;1.58;100.00
59106;BME280;44891;50.204;8.132;2022-12-05T04:27:06;98123.00;;;1.56;100.00
59106;BME280;44891;50.204;8.132;2022-12-05T04:31:10;98127.25;;;1.64;100.00
59106;BME280;44891;50.204;8.132;2022-12-05T04:35:14;98129.53;;;1.52;100.00
59106;BME280;44891;50.204;8.132;2022-12-05T04:39:18;98127.63;;;1.61;100.00
59106;BME280;44891;50.204;8.132;2022-12-05T04:43:23;98131.75;;;1.55;100.00
59106;BME280;44891;50.204;8.132;2022-12-05T04:47:27;98126.31;;;1.50;100.00
59106;BME280;44891;50.204;8.132;2022-12-05T04:51:31;98128.97;;;1.57;100.00
59106;BME280;44891;50.204;8.132;2022-12-05T04:55:35;98141.00;;;1.64;100.00
59106;BME280;44891;50.204;8.132;2022-12-05T04:59:39;98143.22;;;1.68;100.00
59106;BME280;44891;50.204;8.132;2022-12-05T05:03:41;98141.44;;;1.68;100.00
59106;BME280;44891;50.204;8.132;2022-12-05T05:07:44;98150.00;;;1.69;100.00
59106;BME280;44891;50.204;8.132;2022-12-05T05:11:47;98157.25;;;1.73;100.00
59106;BME280;44891;50.204;8.132;2022-12-05T05:15:51;98157.41;;;1.72;100.00
59106;BME280;44891;50.204;8.132;2022-12-05T05:19:53;98152.06;;;1.73;100.00
59106;BME280;44891;50.204;8.132;2022-12-05T05:24:16;98159.38;;;1.70;100.00
59106;BME280;44891;50.204;8.132;2022-12-05T05:28:18;98160.00;;;1.72;100.00
59106;BME280;44891;50.204;8.132;2022-12-05T05:32:21;98156.19;;;1.68;100.00
59106;BME280;44891;50.204;8.132;2022-12-05T05:36:24;98164.66;;;1.61;100.00
59106;BME280;44891;50.204;8.132;2022-12-05T05:40:26;98162.06;;;1.61;100.00
59106;BME280;44891;50.204;8.132;2022-12-05T05:44:28;98168.66;;;1.64;100.00
59106;BME280;44891;50.204;8.132;2022-12-05T05:48:31;98167.22;;;1.76;100.00
59106;BME280;44891;50.204;8.132;2022-12-05T05:52:33;98165.81;;;1.74;100.00
59106;BME280;44891;50.204;8.132;2022-12-05T05:56:35;98171.97;;;1.73;100.00
59106;BME280;44891;50.204;8.132;2022-12-05T06:00:37;98175.28;;;1.67;100.00
59106;BME280;44891;50.204;8.132;2022-12-05T06:04:41;98178.09;;;1.72;100.00
59106;BME280;44891;50.204;8.132;2022-12-05T06:08:43;98182.41;;;1.64;100.00
59106;BME280;44891;50.204;8.132;2022-12-05T06:12:45;98185.09;;;1.56;100.00
59106;BME280;44891;50.204;8.132;2022-12-05T06:16:47;98185.94;;;1.42;100.00
59106;BME280;44891;50.204;8.132;2022-12-05T06:20:53;98187.59;;;1.64;100.00
59106;BME280;44891;50.204;8.132;2022-12-05T06:24:55;98190.94;;;1.44;100.00
59106;BME280;44891;50.204;8.132;2022-12-05T06:28:57;98195.59;;;1.33;100.00
59106;BME280;44891;50.204;8.132;2022-12-05T06:32:59;98202.00;;;1.38;100.00
59106;BME280;44891;50.204;8.132;2022-12-05T06:37:02;98206.88;;;1.62;100.00
59106;BME280;44891;50.204;8.132;2022-12-05T06:41:05;98204.97;;;1.71;100.00
59106;BME280;44891;50.204;8.132;2022-12-05T06:45:07;98195.34;;;1.64;100.00
59106;BME280;44891;50.204;8.132;2022-12-05T06:49:09;98197.50;;;1.61;100.00
59106;BME280;44891;50.204;8.132;2022-12-05T06:53:12;98196.00;;;1.67;100.00
59106;BME280;44891;50.204;8.132;2022-12-05T06:57:14;98213.16;;;1.53;100.00
59106;BME280;44891;50.204;8.132;2022-12-05T07:01:17;98217.22;;;1.62;100.00
59106;BME280;44891;50.204;8.132;2022-12-05T07:05:36;98218.91;;;1.70;100.00
59106;BME280;44891;50.204;8.132;2022-12-05T07:09:39;98222.50;;;1.69;100.00
59106;BME280;44891;50.204;8.132;2022-12-05T07:13:47;98227.22;;;1.65;100.00
59106;BME280;44891;50.204;8.132;2022-12-05T07:17:49;98235.16;;;1.63;100.00
59106;BME280;44891;50.204;8.132;2022-12-05T07:21:52;98228.91;;;1.58;100.00
59106;BME280;44891;50.204;8.132;2022-12-05T07:25:55;98235.31;;;1.77;100.00
59106;BME280;44891;50.204;8.132;2022-12-05T07:29:57;98236.78;;;1.79;100.00
59106;BME280;44891;50.204;8.132;2022-12-05T07:33:59;98236.03;;;1.71;100.00
59106;BME280;44891;50.204;8.132;2022-12-05T07:38:01;98242.47;;;1.75;100.00
59106;BME280;44891;50.204;8.132;2022-12-05T07:42:04;98232.13;;;1.75;100.00
59106;BME280;44891;50.204;8.132;2022-12-05T07:46:07;98244.16;;;1.82;100.00
59106;BME280;44891;50.204;8.132;2022-12-05T07:50:10;98244.97;;;1.83;100.00
59106;BME280;44891;50.204;8.132;2022-12-05T07:54:13;98247.81;;;1.88;100.00
59106;BME280;44891;50.204;8.132;2022-12-05T07:58:16;98254.78;;;1.87;100.00
59106;BME280;44891;50.204;8.132;2022-12-05T08:02:18;98246.47;;;1.77;100.00
59106;BME280;44891;50.204;8.132;2022-12-05T08:06:21;98250.25;;;1.75;100.00
59106;BME280;44891;50.204;8.132;2022-12-05T08:10:23;98248.19;;;1.70;100.00
59106;BME280;44891;50.204;8.132;2022-12-05T08:14:27;98259.72;;;1.53;100.00
59106;BME280;44891;50.204;8.132;2022-12-05T08:18:29;98263.38;;;1.73;100.00
59106;BME280;44891;50.204;8.132;2022-12-05T08:22:31;98264.88;;;1.82;100.00
59106;BME280;44891;50.204;8.132;2022-12-05T08:26:33;98278.63;;;1.83;100.00
59106;BME280;44891;50.204;8.132;2022-12-05T08:30:37;98290.75;;;1.82;100.00
59106;BME280;44891;50.204;8.132;2022-12-05T08:34:38;98293.25;;;1.90;100.00
59106;BME280;44891;50.204;8.132;2022-12-05T08:38:40;98301.47;;;1.94;100.00
59106;BME280;44891;50.204;8.132;2022-12-05T08:42:43;98302.19;;;1.88;100.00
59106;BME280;44891;50.204;8.132;2022-12-05T08:46:47;98309.94;;;2.03;100.00
59106;BME280;44891;50.204;8.132;2022-12-05T08:50:49;98319.00;;;1.92;100.00
59106;BME280;44891;50.204;8.132;2022-12-05T08:54:51;98321.94;;;1.89;100.00
59106;BME280;44891;50.204;8.132;2022-12-05T08:58:53;98332.19;;;1.82;100.00
59106;BME280;44891;50.204;8.132;2022-12-05T09:02:56;98331.28;;;1.90;100.00
59106;BME280;44891;50.204;8.132;2022-12-05T09:07:00;98324.69;;;1.87;100.00
59106;BME280;44891;50.204;8.132;2022-12-05T09:11:05;98285.00;;;1.66;100.00
59106;BME280;44891;50.204;8.132;2022-12-05T09:15:08;98337.28;;;2.05;100.00
59106;BME280;44891;50.204;8.132;2022-12-05T09:19:12;98343.69;;;2.09;100.00
59106;BME280;44891;50.204;8.132;2022-12-05T09:23:14;98342.34;;;2.28;100.00
59106;BME280;44891;50.204;8.132;2022-12-05T09:27:16;98336.22;;;2.36;100.00
59106;BME280;44891;50.204;8.132;2022-12-05T09:31:19;98350.72;;;2.45;100.00
59106;BME280;44891;50.204;8.132;2022-12-05T09:35:23;98348.78;;;2.32;100.00
59106;BME280;44891;50.204;8.132;2022-12-05T09:39:26;98354.94;;;2.31;100.00
59106;BME280;44891;50.204;8.132;2022-12-05T09:43:29;98339.56;;;2.30;100.00
59106;BME280;44891;50.204;8.132;2022-12-05T09:47:35;98339.69;;;2.43;100.00
59106;BME280;44891;50.204;8.132;2022-12-05T09:51:43;98346.47;;;2.59;100.00
59106;BME280;44891;50.204;8.132;2022-12-05T09:55:47;98342.41;;;2.71;100.00
59106;BME280;44891;50.204;8.132;2022-12-05T09:59:50;98339.63;;;2.72;100.00
59106;BME280;44891;50.204;8.132;2022-12-05T10:04:00;98346.84;;;2.77;100.00
59106;BME280;44891;50.204;8.132;2022-12-05T10:08:05;98351.28;;;2.83;100.00
59106;BME280;44891;50.204;8.132;2022-12-05T10:12:14;98342.34;;;2.86;100.00
59106;BME280;44891;50.204;8.132;2022-12-05T10:16:17;98349.00;;;2.95;100.00
59106;BME280;44891;50.204;8.132;2022-12-05T10:20:23;98344.19;;;3.13;100.00
59106;BME280;44891;50.204;8.132;2022-12-05T10:24:29;98337.09;;;3.28;100.00
59106;BME280;44891;50.204;8.132;2022-12-05T10:28:33;98336.34;;;3.35;100.00
59106;BME280;44891;50.204;8.132;2022-12-05T10:32:38;98331.38;;;3.33;100.00
59106;BME280;44891;50.204;8.132;2022-12-05T10:36:43;98336.91;;;3.02;100.00
59106;BME280;44891;50.204;8.132;2022-12-05T10:40:50;98330.50;;;2.98;100.00
59106;BME280;44891;50.204;8.132;2022-12-05T10:44:54;98327.75;;;3.06;100.00
59106;BME280;44891;50.204;8.132;2022-12-05T10:48:57;98332.56;;;3.09;100.00
59106;BME280;44891;50.204;8.132;2022-12-05T10:53:00;98324.31;;;3.55;100.00
59106;BME280;44891;50.204;8.132;2022-12-05T10:57:04;98318.63;;;4.14;98.79
59106;BME280;44891;50.204;8.132;2022-12-05T11:01:20;98308.41;;;4.87;92.80
59106;BME280;44891;50.204;8.132;2022-12-05T11:05:26;98312.81;;;4.80;93.33
59106;BME280;44891;50.204;8.132;2022-12-05T11:09:29;98317.41;;;4.71;92.79
59106;BME280;44891;50.204;8.132;2022-12-05T11:13:33;98310.88;;;4.27;93.70
59106;BME280;44891;50.204;8.132;2022-12-05T11:17:36;98306.41;;;4.08;94.75
59106;BME280;44891;50.204;8.132;2022-12-05T11:21:40;98275.41;;;4.00;95.09
59106;BME280;44891;50.204;8.132;2022-12-05T11:25:42;98313.44;;;4.14;95.09
59106;BME280;44891;50.204;8.132;2022-12-05T11:29:53;98311.81;;;4.06;94.30
59106;BME280;44891;50.204;8.132;2022-12-05T11:34:09;98315.34;;;3.92;94.71
59106;BME280;44891;50.204;8.132;2022-12-05T11:38:14;98329.66;;;3.81;96.70
59106;BME280;44891;50.204;8.132;2022-12-05T11:42:20;98326.34;;;3.60;97.00
59106;BME280;44891;50.204;8.132;2022-12-05T11:46:25;98325.34;;;3.61;97.29
59106;BME280;44891;50.204;8.132;2022-12-05T11:50:36;98323.22;;;3.71;97.46
59106;BME280;44891;50.204;8.132;2022-12-05T11:54:47;98324.41;;;3.68;99.13
59106;BME280;44891;50.204;8.132;2022-12-05T11:58:55;98323.25;;;3.77;97.73
59106;BME280;44891;50.204;8.132;2022-12-05T12:07:27;98327.00;;;3.68;97.40
59106;BME280;44891;50.204;8.132;2022-12-05T12:11:34;98325.91;;;3.56;97.01
59106;BME280;44891;50.204;8.132;2022-12-05T12:15:42;98332.88;;;3.49;97.74
59106;BME280;44891;50.204;8.132;2022-12-05T12:19:51;98331.50;;;3.53;97.60
59106;BME280;44891;50.204;8.132;2022-12-05T12:24:02;98328.94;;;3.60;98.94
59106;BME280;44891;50.204;8.132;2022-12-05T12:28:10;98327.53;;;3.57;98.24
59106;BME280;44891;50.204;8.132;2022-12-05T12:32:18;98329.09;;;3.51;98.95
59106;BME280;44891;50.204;8.132;2022-12-05T12:36:26;98331.41;;;3.40;99.53
59106;BME280;44891;50.204;8.132;2022-12-05T12:40:32;98324.97;;;3.36;99.42
59106;BME280;44891;50.204;8.132;2022-12-05T12:44:44;98330.06;;;3.44;100.00
59106;BME280;44891;50.204;8.132;2022-12-05T12:48:57;98330.69;;;3.52;99.97
59106;BME280;44891;50.204;8.132;2022-12-05T12:53:10;98322.72;;;3.54;100.00
59106;BME280;44891;50.204;8.132;2022-12-05T12:57:21;98325.47;;;3.46;100.00
59106;BME280;44891;50.204;8.132;2022-12-05T13:01:29;98320.13;;;3.54;100.00
59106;BME280;44891;50.204;8.132;2022-12-05T13:05:33;98287.19;;;3.26;100.00
59106;BME280;44891;50.204;8.132;2022-12-05T13:09:39;98327.66;;;3.49;100.00
59106;BME280;44891;50.204;8.132;2022-12-05T13:13:44;98320.50;;;3.51;100.00
59106;BME280;44891;50.204;8.132;2022-12-05T13:17:47;98325.22;;;3.41;100.00
59106;BME280;44891;50.204;8.132;2022-12-05T13:21:50;98325.75;;;3.58;100.00
59106;BME280;44891;50.204;8.132;2022-12-05T13:25:53;98330.13;;;3.57;100.00
59106;BME280;44891;50.204;8.132;2022-12-05T13:29:57;98328.09;;;3.52;100.00
59106;BME280;44891;50.204;8.132;2022-12-05T13:34:00;98330.34;;;3.62;100.00
59106;BME280;44891;50.204;8.132;2022-12-05T13:38:01;98328.16;;;3.59;100.00
59106;BME280;44891;50.204;8.132;2022-12-05T13:42:21;98327.34;;;3.59;100.00
59106;BME280;44891;50.204;8.132;2022-12-05T13:46:27;98342.78;;;3.39;100.00
59106;BME280;44891;50.204;8.132;2022-12-05T13:50:32;98342.41;;;3.42;100.00
59106;BME280;44891;50.204;8.132;2022-12-05T13:54:35;98339.84;;;3.48;100.00
59106;BME280;44891;50.204;8.132;2022-12-05T13:58:48;98341.03;;;3.46;100.00
59106;BME280;44891;50.204;8.132;2022-12-05T14:02:52;98340.19;;;3.39;100.00
59106;BME280;44891;50.204;8.132;2022-12-05T14:06:55;98347.78;;;3.40;100.00
59106;BME280;44891;50.204;8.132;2022-12-05T14:11:07;98329.13;;;3.30;100.00
59106;BME280;44891;50.204;8.132;2022-12-05T14:15:22;98346.22;;;3.46;100.00
59106;BME280;44891;50.204;8.132;2022-12-05T14:23:51;98354.63;;;3.48;100.00
59106;BME280;44891;50.204;8.132;2022-12-05T14:27:57;98360.44;;;3.50;100.00
59106;BME280;44891;50.204;8.132;2022-12-05T14:32:06;98354.63;;;3.48;100.00
59106;BME280;44891;50.204;8.132;2022-12-05T14:36:13;98357.97;;;3.42;100.00
59106;BME280;44891;50.204;8.132;2022-12-05T14:40:19;98356.19;;;3.42;100.00
59106;BME280;44891;50.204;8.132;2022-12-05T14:44:24;98353.78;;;3.41;100.00
59106;BME280;44891;50.204;8.132;2022-12-05T14:48:32;98361.81;;;3.46;100.00
59106;BME280;44891;50.204;8.132;2022-12-05T14:52:35;98353.41;;;3.44;100.00
59106;BME280;44891;50.204;8.132;2022-12-05T14:56:42;98363.75;;;3.37;100.00
59106;BME280;44891;50.204;8.132;2022-12-05T15:00:44;98354.97;;;3.38;100.00
59106;BME280;44891;50.204;8.132;2022-12-05T15:04:49;98359.72;;;3.35;100.00
59106;BME280;44891;50.204;8.132;2022-12-05T15:08:54;98361.72;;;3.33;100.00
59106;BME280;44891;50.204;8.132;2022-12-05T15:12:58;98359.31;;;3.31;100.00
59106;BME280;44891;50.204;8.132;2022-12-05T15:17:01;98355.28;;;3.28;100.00
59106;BME280;44891;50.204;8.132;2022-12-05T15:21:05;98362.06;;;3.30;100.00
59106;BME280;44891;50.204;8.132;2022-12-05T15:29:32;98368.88;;;3.31;100.00
59106;BME280;44891;50.204;8.132;2022-12-05T15:33:35;98368.69;;;3.32;100.00
59106;BME280;44891;50.204;8.132;2022-12-05T15:37:39;98363.06;;;3.28;100.00
59106;BME280;44891;50.204;8.132;2022-12-05T15:41:44;98368.06;;;3.30;100.00
59106;BME280;44891;50.204;8.132;2022-12-05T15:45:48;98361.66;;;3.26;100.00
59106;BME280;44891;50.204;8.132;2022-12-05T15:49:50;98371.44;;;3.24;100.00
59106;BME280;44891;50.204;8.132;2022-12-05T15:53:53;98374.19;;;3.22;100.00
59106;BME280;44891;50.204;8.132;2022-12-05T15:58:00;98378.31;;;3.17;100.00
59106;BME280;44891;50.204;8.132;2022-12-05T16:02:06;98377.91;;;3.13;100.00
59106;BME280;44891;50.204;8.132;2022-12-05T16:06:13;98390.34;;;3.18;100.00
59106;BME280;44891;50.204;8.132;2022-12-05T16:10:17;98388.97;;;3.22;100.00
59106;BME280;44891;50.204;8.132;2022-12-05T16:14:20;98386.38;;;3.22;100.00
59106;BME280;44891;50.204;8.132;2022-12-05T16:18:25;98387.56;;;3.19;100.00
59106;BME280;44891;50.204;8.132;2022-12-05T16:22:28;98383.91;;;3.14;100.00
59106;BME280;44891;50.204;8.132;2022-12-05T16:26:36;98386.69;;;3.12;100.00
59106;BME280;44891;50.204;8.132;2022-12-05T16:30:39;98389.94;;;3.21;100.00
59106;BME280;44891;50.204;8.132;2022-12-05T16:34:43;98391.56;;;3.22;100.00
59106;BME280;44891;50.204;8.132;2022-12-05T16:38:45;98394.53;;;3.19;100.00
59106;BME280;44891;50.204;8.132;2022-12-05T16:42:47;98395.34;;;3.19;100.00
59106;BME280;44891;50.204;8.132;2022-12-05T16:47:01;98398.19;;;3.24;100.00
59106;BME280;44891;50.204;8.132;2022-12-05T16:51:16;98403.97;;;3.26;100.00
59106;BME280;44891;50.204;8.132;2022-12-05T16:55:18;98394.94;;;3.22;100.00
59106;BME280;44891;50.204;8.132;2022-12-05T16:59:21;98396.94;;;3.20;100.00
59106;BME280;44891;50.204;8.132;2022-12-05T17:03:24;98396.69;;;3.15;100.00
59106;BME280;44891;50.204;8.132;2022-12-05T17:07:28;98394.78;;;3.03;100.00
59106;BME280;44891;50.204;8.132;2022-12-05T17:11:30;98397.00;;;3.06;100.00
59106;BME280;44891;50.204;8.132;2022-12-05T17:15:36;98394.59;;;3.04;100.00
59106;BME280;44891;50.204;8.132;2022-12-05T17:19:38;98401.41;;;3.05;100.00
59106;BME280;44891;50.204;8.132;2022-12-05T17:23:41;98398.75;;;2.98;100.00
59106;BME280;44891;50.204;8.132;2022-12-05T17:27:43;98398.53;;;3.00;100.00
59106;BME280;44891;50.204;8.132;2022-12-05T17:31:45;98396.56;;;3.02;100.00
59106;BME280;44891;50.204;8.132;2022-12-05T17:35:47;98398.53;;;3.00;100.00
59106;BME280;44891;50.204;8.132;2022-12-05T17:39:51;98401.94;;;3.00;100.00
59106;BME280;44891;50.204;8.132;2022-12-05T17:43:53;98398.41;;;3.08;100.00
59106;BME280;44891;50.204;8.132;2022-12-05T17:47:55;98406.41;;;3.07;100.00
59106;BME280;44891;50.204;8.132;2022-12-05T17:51:58;98403.13;;;3.19;100.00
59106;BME280;44891;50.204;8.132;2022-12-05T17:56:04;98412.69;;;3.19;100.00
59106;BME280;44891;50.204;8.132;2022-12-05T18:00:07;98412.25;;;3.15;100.00
59106;BME280;44891;50.204;8.132;2022-12-05T18:04:09;98428.16;;;3.27;100.00
59106;BME280;44891;50.204;8.132;2022-12-05T18:08:11;98422.34;;;3.25;100.00
59106;BME280;44891;50.204;8.132;2022-12-05T18:12:14;98422.03;;;3.13;100.00
59106;BME280;44891;50.204;8.132;2022-12-05T18:16:16;98423.16;;;3.04;100.00
59106;BME280;44891;50.204;8.132;2022-12-05T18:20:18;98418.06;;;2.96;100.00
59106;BME280;44891;50.204;8.132;2022-12-05T18:24:20;98428.16;;;3.06;100.00
59106;BME280;44891;50.204;8.132;2022-12-05T18:28:23;98415.59;;;3.09;100.00
59106;BME280;44891;50.204;8.132;2022-12-05T18:32:25;98414.97;;;3.07;100.00
59106;BME280;44891;50.204;8.132;2022-12-05T18:36:27;98422.56;;;3.09;100.00
59106;BME280;44891;50.204;8.132;2022-12-05T18:40:29;98424.56;;;3.07;100.00
59106;BME280;44891;50.204;8.132;2022-12-05T18:44:32;98426.69;;;3.03;100.00
59106;BME280;44891;50.204;8.132;2022-12-05T18:48:34;98423.50;;;3.01;100.00
59106;BME280;44891;50.204;8.132;2022-12-05T18:52:36;98420.97;;;3.08;100.00
59106;BME280;44891;50.204;8.132;2022-12-05T18:56:38;98415.91;;;3.21;100.00
59106;BME280;44891;50.204;8.132;2022-12-05T19:00:41;98428.53;;;3.24;100.00
59106;BME280;44891;50.204;8.132;2022-12-05T19:04:43;98413.19;;;3.29;100.00
59106;BME280;44891;50.204;8.132;2022-12-05T19:08:46;98416.75;;;3.28;100.00
59106;BME280;44891;50.204;8.132;2022-12-05T19:12:48;98420.59;;;3.32;100.00
59106;BME280;44891;50.204;8.132;2022-12-05T19:16:51;98425.59;;;3.34;100.00
59106;BME280;44891;50.204;8.132;2022-12-05T19:20:54;98430.41;;;3.37;100.00
59106;BME280;44891;50.204;8.132;2022-12-05T19:24:56;98426.84;;;3.38;100.00
59106;BME280;44891;50.204;8.132;2022-12-05T19:28:58;98423.75;;;3.27;100.00
59106;BME280;44891;50.204;8.132;2022-12-05T19:33:01;98426.16;;;3.08;100.00
59106;BME280;44891;50.204;8.132;2022-12-05T19:37:03;98424.38;;;3.08;100.00
59106;BME280;44891;50.204;8.132;2022-12-05T19:41:06;98434.25;;;3.19;100.00
59106;BME280;44891;50.204;8.132;2022-12-05T19:45:09;98435.53;;;3.30;100.00
59106;BME280;44891;50.204;8.132;2022-12-05T19:49:13;98435.38;;;3.32;100.00
59106;BME280;44891;50.204;8.132;2022-12-05T19:53:15;98440.72;;;3.30;100.00
59106;BME280;44891;50.204;8.132;2022-12-05T19:57:17;98441.56;;;3.31;100.00
59106;BME280;44891;50.204;8.132;2022-12-05T20:01:20;98445.63;;;3.18;100.00
59106;BME280;44891;50.204;8.132;2022-12-05T20:05:24;98445.69;;;3.25;100.00
59106;BME280;44891;50.204;8.132;2022-12-05T20:09:26;98444.81;;;3.39;100.00
59106;BME280;44891;50.204;8.132;2022-12-05T20:13:28;98450.75;;;3.33;100.00
59106;BME280;44891;50.204;8.132;2022-12-05T20:17:29;98446.19;;;3.35;100.00
59106;BME280;44891;50.204;8.132;2022-12-05T20:21:33;98441.19;;;3.34;100.00
59106;BME280;44891;50.204;8.132;2022-12-05T20:25:35;98442.22;;;3.39;100.00
59106;BME280;44891;50.204;8.132;2022-12-05T20:29:39;98447.97;;;3.35;100.00
59106;BME280;44891;50.204;8.132;2022-12-05T20:33:41;98438.13;;;3.30;100.00
59106;BME280;44891;50.204;8.132;2022-12-05T20:37:45;98437.78;;;3.33;100.00
59106;BME280;44891;50.204;8.132;2022-12-05T20:41:47;98439.50;;;3.26;100.00
59106;BME280;44891;50.204;8.132;2022-12-05T20:45:49;98453.91;;;3.28;100.00
59106;BME280;44891;50.204;8.132;2022-12-05T20:49:51;98441.91;;;3.27;100.00
59106;BME280;44891;50.204;8.132;2022-12-05T20:53:54;98440.31;;;3.26;100.00
59106;BME280;44891;50.204;8.132;2022-12-05T20:57:57;98449.16;;;3.32;100.00
59106;BME280;44891;50.204;8.132;2022-12-05T21:01:59;98442.03;;;3.19;100.00
59106;BME280;44891;50.204;8.132;2022-12-05T21:06:05;98438.66;;;3.19;100.00
59106;BME280;44891;50.204;8.132;2022-12-05T21:10:09;98444.66;;;3.19;100.00
59106;BME280;44891;50.204;8.132;2022-12-05T21:14:10;98439.19;;;3.14;100.00
59106;BME280;44891;50.204;8.132;2022-12-05T21:18:12;98441.19;;;3.12;100.00
59106;BME280;44891;50.204;8.132;2022-12-05T21:22:14;98451.88;;;3.24;100.00
59106;BME280;44891;50.204;8.132;2022-12-05T21:26:17;98437.84;;;3.18;100.00
59106;BME280;44891;50.204;8.132;2022-12-05T21:30:20;98440.44;;;3.18;100.00
59106;BME280;44891;50.204;8.132;2022-12-05T21:34:21;98433.47;;;3.19;100.00
59106;BME280;44891;50.204;8.132;2022-12-05T21:38:24;98433.28;;;3.20;100.00
59106;BME280;44891;50.204;8.132;2022-12-05T21:42:27;98421.91;;;3.21;100.00
59106;BME280;44891;50.204;8.132;2022-12-05T21:46:29;98421.41;;;3.11;100.00